createdAt,value
2023-01-22T00:02:03.365Z,12.20
2023-01-22T00:05:47.260Z,12.03
2023-01-22T00:09:30.000Z,12.60
2023-01-22T00:13:12.700Z,12.20
2023-01-22T00:16:55.365Z,12.13
2023-01-22T00:20:40.861Z,12.20
2023-01-22T00:24:24.312Z,12.97
2023-01-22T00:28:07.426Z,12.60
2023-01-22T00:31:50.118Z,12.23
2023-01-22T00:35:35.255Z,12.93
2023-01-22T00:39:19.462Z,12.07
2023-01-22T00:43:02.344Z,12.33
2023-01-22T00:46:45.093Z,11.80
2023-01-22T00:50:27.844Z,12.10
2023-01-22T00:54:10.543Z,11.97
2023-01-22T00:57:54.602Z,11.67
2023-01-22T01:01:38.453Z,12.53
2023-01-22T01:05:21.223Z,11.70
2023-01-22T01:09:05.302Z,11.67
2023-01-22T01:12:47.971Z,12.97
2023-01-22T01:16:32.981Z,11.93
2023-01-22T01:20:15.956Z,12.33
2023-01-22T01:23:59.566Z,13.30
2023-01-22T01:27:47.082Z,12.83
2023-01-22T01:31:29.868Z,12.20
2023-01-22T01:35:13.925Z,13.10
2023-01-22T01:38:56.609Z,12.40
2023-01-22T01:42:41.037Z,12.57
2023-01-22T01:46:25.536Z,12.93
2023-01-22T01:50:08.468Z,12.77
2023-01-22T01:53:53.036Z,12.70
2023-01-22T01:57:36.196Z,12.60
2023-01-22T02:01:19.575Z,13.27
2023-01-22T02:05:02.289Z,12.47
2023-01-22T02:08:46.246Z,13.60
2023-01-22T02:12:30.756Z,12.73
2023-01-22T02:16:13.527Z,13.33
2023-01-22T02:19:56.448Z,14.63
2023-01-22T02:23:40.446Z,13.80
2023-01-22T02:27:23.312Z,13.37
2023-01-22T02:31:06.468Z,13.30
2023-01-22T02:34:49.264Z,13.57
2023-01-22T02:38:31.928Z,13.80
2023-01-22T02:42:16.046Z,13.20
2023-01-22T02:46:00.580Z,14.00
2023-01-22T02:49:43.318Z,13.90
2023-01-22T02:53:25.978Z,14.97
2023-01-22T02:57:08.780Z,14.33
2023-01-22T03:00:53.264Z,13.70
2023-01-22T03:04:35.947Z,13.47
2023-01-22T03:08:19.678Z,14.00
2023-01-22T03:12:02.524Z,13.57
2023-01-22T03:16:05.933Z,14.20
2023-01-22T03:20:07.225Z,14.67
2023-01-22T03:23:52.003Z,13.70
2023-01-22T03:27:34.738Z,13.83
2023-01-22T03:31:17.987Z,14.50
2023-01-22T03:35:02.751Z,13.40
2023-01-22T03:38:45.878Z,13.27
2023-01-22T03:42:28.748Z,14.50
2023-01-22T03:46:13.547Z,14.40
2023-01-22T03:49:56.235Z,13.47
2023-01-22T03:53:40.808Z,13.83
2023-01-22T03:57:23.473Z,13.87
2023-01-22T04:01:07.576Z,13.57
2023-01-22T04:04:50.639Z,14.10
2023-01-22T04:08:35.336Z,14.67
2023-01-22T04:12:19.462Z,13.27
2023-01-22T04:16:02.785Z,13.47
2023-01-22T04:19:45.436Z,14.50
2023-01-22T04:23:28.199Z,13.60
2023-01-22T04:27:10.834Z,14.10
2023-01-22T04:30:55.604Z,14.40
2023-01-22T04:34:38.291Z,14.23
2023-01-22T04:38:20.998Z,14.50
2023-01-22T04:42:03.688Z,14.30
2023-01-22T04:45:46.384Z,14.10
2023-01-22T04:49:30.466Z,15.10
2023-01-22T04:53:13.325Z,13.70
2023-01-22T04:56:56.012Z,14.43
2023-01-22T05:00:38.840Z,15.20
2023-01-22T05:04:23.781Z,14.73
2023-01-22T05:08:09.039Z,14.47
2023-01-22T05:11:51.783Z,14.50
2023-01-22T05:15:34.955Z,14.53
2023-01-22T05:19:17.867Z,15.17
2023-01-22T05:23:00.568Z,14.53
2023-01-22T05:26:44.997Z,14.00
2023-01-22T05:30:27.728Z,14.67
2023-01-22T05:34:10.447Z,13.87
2023-01-22T05:37:53.164Z,14.33
2023-01-22T05:41:38.672Z,14.83
2023-01-22T05:45:22.737Z,14.00
2023-01-22T05:49:05.756Z,14.63
2023-01-22T05:52:48.481Z,14.70
2023-01-22T05:56:31.298Z,14.33
2023-01-22T06:00:15.359Z,15.47
2023-01-22T06:03:59.684Z,14.43
2023-01-22T06:07:42.318Z,13.87
2023-01-22T06:11:25.740Z,13.93
2023-01-22T06:15:09.797Z,14.53
2023-01-22T06:18:52.482Z,13.57
2023-01-22T06:22:36.488Z,13.80
2023-01-22T06:26:19.316Z,13.87
2023-01-22T06:30:02.073Z,13.90
2023-01-22T06:33:44.765Z,13.93
2023-01-22T06:37:27.449Z,14.83
2023-01-22T06:41:11.686Z,14.67
2023-01-22T06:44:54.391Z,14.70
2023-01-22T06:48:37.075Z,14.37
2023-01-22T06:52:19.775Z,13.73
2023-01-22T06:56:02.930Z,13.83
2023-01-22T06:59:46.989Z,13.27
2023-01-22T07:03:29.774Z,13.40
2023-01-22T07:07:12.986Z,13.70
2023-01-22T07:10:55.672Z,13.43
2023-01-22T07:14:38.340Z,14.20
2023-01-22T07:18:23.991Z,13.30
2023-01-22T07:22:06.783Z,14.23
2023-01-22T07:25:49.493Z,13.13
2023-01-22T07:29:32.217Z,13.50
2023-01-22T07:33:15.880Z,14.53
2023-01-22T07:37:01.911Z,14.13
2023-01-22T07:40:44.699Z,14.43
2023-01-22T07:44:27.381Z,14.50
2023-01-22T07:48:10.771Z,13.47
2023-01-22T07:51:53.524Z,14.10
2023-01-22T07:55:37.571Z,13.93
2023-01-22T07:59:20.238Z,14.87
2023-01-22T08:03:03.344Z,14.10
2023-01-22T08:06:46.080Z,13.63
2023-01-22T08:10:29.084Z,14.07
2023-01-22T08:14:13.176Z,13.70
2023-01-22T08:17:55.917Z,13.37
2023-01-22T08:21:38.753Z,13.57
2023-01-22T08:25:21.457Z,14.03
2023-01-22T08:29:07.207Z,13.53
2023-01-22T08:32:51.576Z,14.27
2023-01-22T08:36:34.258Z,13.83
2023-01-22T08:40:17.372Z,13.23
2023-01-22T08:44:00.324Z,14.47
2023-01-22T08:47:42.963Z,14.47
2023-01-22T08:51:27.084Z,14.53
2023-01-22T08:55:10.833Z,14.40
2023-01-22T08:58:53.616Z,13.30
2023-01-22T09:02:36.256Z,13.40
2023-01-22T09:06:18.908Z,14.23
2023-01-22T09:10:04.204Z,14.10
2023-01-22T09:13:47.057Z,14.27
2023-01-22T09:17:29.753Z,13.43
2023-01-22T09:21:12.548Z,13.70
2023-01-22T09:24:55.658Z,14.00
2023-01-22T09:28:39.870Z,13.93
2023-01-22T09:32:22.488Z,14.30
2023-01-22T09:36:09.961Z,14.67
2023-01-22T09:39:52.767Z,14.03
2023-01-22T09:43:38.323Z,14.23
2023-01-22T09:47:31.669Z,14.73
2023-01-22T09:51:15.491Z,14.23
2023-01-22T09:54:58.321Z,12.90
2023-01-22T09:58:41.066Z,14.77
2023-01-22T10:02:31.028Z,15.57
2023-01-22T10:06:15.158Z,15.60
2023-01-22T10:10:02.465Z,15.13
2023-01-22T10:13:45.225Z,14.70
2023-01-22T10:17:32.302Z,14.67
2023-01-22T10:21:19.543Z,15.00
2023-01-22T10:25:02.353Z,15.07
2023-01-22T10:28:46.188Z,14.67
2023-01-22T10:32:31.893Z,14.60
2023-01-22T10:36:15.775Z,15.37
2023-01-22T10:40:00.335Z,14.30
2023-01-22T10:43:43.080Z,13.30
2023-01-22T10:47:27.625Z,12.90
2023-01-22T10:51:16.197Z,12.73
2023-01-22T10:55:00.092Z,13.73
2023-01-22T10:58:49.001Z,13.53
2023-01-22T11:02:31.936Z,13.57
2023-01-22T11:06:20.699Z,13.93
2023-01-22T11:10:09.345Z,13.63
2023-01-22T11:13:55.982Z,14.23
2023-01-22T11:17:40.373Z,13.83
2023-01-22T11:21:27.804Z,15.50
2023-01-22T11:25:12.034Z,12.63
2023-01-22T11:28:59.505Z,13.57
2023-01-22T11:32:51.946Z,11.30
2023-01-22T11:36:40.401Z,14.00
2023-01-22T11:40:28.101Z,12.23
2023-01-22T11:44:25.655Z,12.73
2023-01-22T11:48:31.163Z,12.07
2023-01-22T11:52:22.109Z,12.00
2023-01-22T11:56:15.956Z,10.97
2023-01-22T12:00:12.426Z,11.77
2023-01-22T12:04:35.766Z,11.27
2023-01-22T12:08:31.943Z,12.03
2023-01-22T12:12:26.851Z,10.87
2023-01-22T12:16:16.649Z,10.23
2023-01-22T12:20:14.461Z,9.17
2023-01-22T12:24:03.204Z,8.83
2023-01-22T12:27:50.978Z,9.20
2023-01-22T12:31:36.815Z,9.30
2023-01-22T12:35:21.321Z,8.50
2023-01-22T12:39:12.833Z,9.37
2023-01-22T12:43:01.374Z,8.63
2023-01-22T12:46:51.828Z,11.63
2023-01-22T12:50:34.532Z,9.50
2023-01-22T12:54:23.647Z,8.23
2023-01-22T12:58:22.114Z,7.80
2023-01-22T13:02:06.772Z,8.33
2023-01-22T13:05:49.589Z,8.60
2023-01-22T13:09:36.957Z,8.37
2023-01-22T13:13:24.834Z,8.67
2023-01-22T13:17:18.932Z,8.77
2023-01-22T13:21:04.624Z,8.70
2023-01-22T13:24:53.890Z,7.80
2023-01-22T13:28:36.582Z,8.20
2023-01-22T13:32:21.294Z,7.80
2023-01-22T13:36:10.774Z,7.90
2023-01-22T13:39:54.892Z,9.90
2023-01-22T13:43:39.252Z,10.77
2023-01-22T13:47:28.309Z,10.43
2023-01-22T13:51:18.245Z,8.70
2023-01-22T13:55:06.936Z,8.23
2023-01-22T13:58:54.151Z,7.67
2023-01-22T14:02:37.039Z,8.57
2023-01-22T14:06:19.690Z,9.17
2023-01-22T14:10:15.237Z,8.20
2023-01-22T14:13:58.075Z,8.93
2023-01-22T14:17:40.774Z,8.33
2023-01-22T14:21:24.685Z,9.03
2023-01-22T14:25:08.704Z,9.23
2023-01-22T14:28:53.084Z,8.93
2023-01-22T14:32:35.936Z,9.57
2023-01-22T14:36:20.310Z,9.40
2023-01-22T14:40:03.865Z,9.40
2023-01-22T14:43:47.421Z,15.30
2023-01-22T14:47:31.581Z,13.50
2023-01-22T14:51:14.611Z,10.93
2023-01-22T14:54:57.289Z,10.47
2023-01-22T14:58:39.977Z,10.23
2023-01-22T15:02:22.735Z,9.80
2023-01-22T15:06:07.283Z,10.53
2023-01-22T15:09:49.927Z,10.67
2023-01-22T15:13:32.960Z,10.00
2023-01-22T15:17:15.758Z,9.60
2023-01-22T15:20:58.609Z,10.33
2023-01-22T15:24:43.778Z,9.67
2023-01-22T15:28:26.695Z,10.23
2023-01-22T15:32:09.307Z,9.60
2023-01-22T15:35:51.963Z,10.03
2023-01-22T15:39:34.624Z,10.20
2023-01-22T15:43:18.680Z,10.00
2023-01-22T15:47:01.442Z,9.10
2023-01-22T15:50:44.279Z,10.57
2023-01-22T15:54:27.130Z,10.90
2023-01-22T15:58:10.096Z,11.43
2023-01-22T16:01:54.178Z,9.97
2023-01-22T16:05:37.245Z,10.37
2023-01-22T16:09:23.483Z,10.03
2023-01-22T16:13:06.571Z,10.40
2023-01-22T16:16:51.140Z,9.93
2023-01-22T16:20:41.228Z,10.47
2023-01-22T16:24:24.088Z,10.73
2023-01-22T16:28:09.638Z,10.50
2023-01-22T16:31:52.965Z,10.50
2023-01-22T16:35:39.874Z,10.80
2023-01-22T16:39:25.831Z,14.67
2023-01-22T16:43:10.823Z,19.63
2023-01-22T16:46:54.444Z,11.73
2023-01-22T16:50:38.964Z,11.33
2023-01-22T16:54:24.437Z,10.17
2023-01-22T16:58:07.194Z,11.07
2023-01-22T17:01:50.292Z,10.87
2023-01-22T17:05:32.906Z,11.00
2023-01-22T17:09:18.734Z,10.80
2023-01-22T17:13:02.060Z,12.23
2023-01-22T17:16:44.835Z,12.87
2023-01-22T17:20:27.542Z,13.00
2023-01-22T17:24:10.843Z,11.23
2023-01-22T17:27:54.896Z,10.63
2023-01-22T17:31:38.068Z,12.00
2023-01-22T17:35:22.083Z,12.33
2023-01-22T17:39:05.486Z,12.67
2023-01-22T17:42:48.154Z,13.77
2023-01-22T17:46:32.695Z,25.50
2023-01-22T17:50:15.630Z,15.87
2023-01-22T17:54:01.504Z,13.80
2023-01-22T17:57:44.145Z,14.77
2023-01-22T18:01:30.823Z,13.50
2023-01-22T18:05:16.845Z,14.50
2023-01-22T18:09:00.608Z,14.57
2023-01-22T18:12:44.936Z,14.83
2023-01-22T18:16:29.449Z,17.07
2023-01-22T18:20:12.527Z,14.83
2023-01-22T18:23:56.988Z,15.67
2023-01-22T18:27:39.730Z,14.53
2023-01-22T18:31:24.635Z,13.87
2023-01-22T18:35:08.747Z,14.80
2023-01-22T18:38:52.079Z,15.03
2023-01-22T18:42:36.223Z,14.60
2023-01-22T18:46:19.805Z,15.30
2023-01-22T18:50:02.513Z,14.77
2023-01-22T18:53:45.208Z,17.17
2023-01-22T18:57:29.929Z,19.57
2023-01-22T19:01:17.155Z,17.73
2023-01-22T19:05:00.012Z,17.17
2023-01-22T19:08:43.703Z,16.47
2023-01-22T19:12:26.434Z,15.40
2023-01-22T19:16:10.910Z,15.10
2023-01-22T19:19:55.105Z,15.27
2023-01-22T19:23:38.060Z,19.33
2023-01-22T19:27:20.931Z,18.97
2023-01-22T19:31:03.656Z,21.83
2023-01-22T19:34:46.331Z,19.50
2023-01-22T19:38:30.364Z,20.23
2023-01-22T19:42:13.081Z,19.27
2023-01-22T19:45:55.875Z,19.20
2023-01-22T19:49:38.765Z,18.20
2023-01-22T19:53:21.446Z,42.07
2023-01-22T19:57:05.519Z,20.33
2023-01-22T20:00:48.555Z,19.50
2023-01-22T20:04:33.802Z,19.27
2023-01-22T20:08:16.768Z,20.60
2023-01-22T20:12:00.238Z,18.27
2023-01-22T20:15:44.322Z,20.23
2023-01-22T20:19:28.863Z,18.27
2023-01-22T20:23:11.534Z,19.33
2023-01-22T20:26:55.321Z,20.50
2023-01-22T20:30:38.316Z,20.50
2023-01-22T20:34:22.478Z,18.30
2023-01-22T20:38:05.171Z,19.30
2023-01-22T20:41:47.935Z,19.47
2023-01-22T20:45:31.029Z,18.00
2023-01-22T20:49:14.143Z,17.83
2023-01-22T20:52:58.221Z,18.00
2023-01-22T20:56:40.909Z,18.27
2023-01-22T21:00:24.067Z,19.07
2023-01-22T21:04:07.099Z,18.53
2023-01-22T21:07:51.284Z,18.60
2023-01-22T21:11:36.764Z,17.80
2023-01-22T21:15:19.482Z,18.40
2023-01-22T21:19:03.534Z,18.73
2023-01-22T21:22:46.282Z,18.40
2023-01-22T21:26:31.366Z,22.90
2023-01-22T21:30:16.022Z,26.70
2023-01-22T21:34:03.288Z,19.80
2023-01-22T21:37:45.938Z,19.40
2023-01-22T21:41:29.060Z,20.27
2023-01-22T21:45:44.519Z,19.73
2023-01-22T21:49:28.731Z,19.63
2023-01-22T21:53:12.797Z,18.53
2023-01-22T21:56:56.251Z,19.03
2023-01-22T22:00:38.955Z,21.30
2023-01-22T22:04:25.782Z,20.77
2023-01-22T22:08:10.047Z,20.87
2023-01-22T22:11:56.009Z,19.83
2023-01-22T22:15:38.922Z,20.07
2023-01-22T22:19:22.446Z,20.20
2023-01-22T22:23:05.358Z,18.87
2023-01-22T22:26:49.466Z,22.17
2023-01-22T22:30:32.125Z,21.47
2023-01-22T22:34:14.759Z,20.83
2023-01-22T22:37:57.585Z,20.03
2023-01-22T22:41:40.717Z,20.27
2023-01-22T22:45:24.780Z,20.83
2023-01-22T22:49:09.281Z,21.07
2023-01-22T22:52:52.847Z,20.83
2023-01-22T22:56:36.127Z,20.97
2023-01-22T23:00:20.077Z,22.63
2023-01-22T23:04:04.942Z,20.87
2023-01-22T23:07:50.454Z,20.73
2023-01-22T23:11:35.135Z,21.13
2023-01-22T23:15:17.865Z,21.83
2023-01-22T23:19:02.067Z,20.93
2023-01-22T23:22:46.496Z,20.60
2023-01-22T23:26:30.658Z,21.67
2023-01-22T23:30:14.328Z,20.97
2023-01-22T23:33:57.708Z,21.27
2023-01-22T23:37:40.448Z,21.47
2023-01-22T23:41:26.621Z,21.87
2023-01-22T23:45:11.910Z,20.10
2023-01-22T23:48:58.910Z,19.70
2023-01-22T23:52:42.814Z,20.63
2023-01-22T23:56:31.523Z,20.27
